createdAt,value
2023-03-26T00:28:27.218Z,9.11
2023-03-26T00:58:27.170Z,9.05
2023-03-26T01:28:27.668Z,9.0
2023-03-26T02:28:27.134Z,8.98
2023-03-26T02:28:27.560Z,9.1
2023-03-26T02:58:27.015Z,9.02
2023-03-26T03:28:27.212Z,9.13
2023-03-26T03:58:26.812Z,9.08
2023-03-26T04:28:27.102Z,9.06
2023-03-26T04:58:26.906Z,8.32
2023-03-26T05:28:26.844Z,8.06
2023-03-26T05:58:27.005Z,8.26
2023-03-26T06:28:26.871Z,8.07
2023-03-26T06:58:26.455Z,7.99
2023-03-26T07:28:26.975Z,8.11
2023-03-26T07:58:28.861Z,8.01
2023-03-26T08:28:26.771Z,8.14
2023-03-26T08:58:26.962Z,9.17
2023-03-26T09:28:26.538Z,9.1
2023-03-26T09:58:26.774Z,8.84
2023-03-26T10:28:26.622Z,9.62
2023-03-26T10:58:26.234Z,10.05
2023-03-26T11:28:26.153Z,11.8
2023-03-26T11:58:26.280Z,11.99
2023-03-26T12:28:26.201Z,10.72
2023-03-26T12:58:26.391Z,9.26
2023-03-26T13:28:26.327Z,10.58
2023-03-26T13:58:26.215Z,11.34
2023-03-26T14:28:25.953Z,11.9
2023-03-26T14:58:25.859Z,11.72
2023-03-26T15:28:25.859Z,11.04
2023-03-26T15:58:26.067Z,10.04
2023-03-26T16:28:25.954Z,9.91
2023-03-26T16:58:26.193Z,9.44
2023-03-26T17:28:26.071Z,8.25
2023-03-26T17:58:25.933Z,7.34
2023-03-26T18:28:25.500Z,6.96
2023-03-26T18:58:26.052Z,6.86
2023-03-26T19:28:25.633Z,6.64
2023-03-26T19:58:25.884Z,6.58
2023-03-26T20:28:25.704Z,6.7
2023-03-26T20:58:30.962Z,6.73
2023-03-26T21:28:29.037Z,6.68
2023-03-26T21:58:25.701Z,6.61
2023-03-26T22:28:25.649Z,6.49
2023-03-26T23:28:25.670Z,6.06
2023-03-26T23:58:25.581Z,5.81
